Meteo Giornale » Osservazioni meteo Croazia » Pula Aerodrome

ore: 01:00 - Osservazioni Meteo Pula Aerodrome
Lat. 45° 54' N Lon. 13° 55' E Alt. 63 metri s.l.m.

foschia Europe/Zagreb

2 °C

Foschia

Temp. 24 Ore

-0 °C

12 °C

Nord

0 Km/h

Dew point 1 °C

Umidità 93 %

Visibilità  2 Km

Il sole sorge alle ore 07:21

Il sole tramonta alle ore 17:15

Data e Ora Cielo e Fenomeni T °C DP °C Um. % Pres. hPa Vis. km Vento km/h
Oggi h: 01:00 foschia Foschia 2 1 93 1019 2 N 0
Oggi h: 00:30 foschia Foschia 4 3 93 1019 3 N 9.3
Oggi h: 00:00 foschia Foschia 4 3 93 1019 3 N 1.8
Ieri h: 23:30 foschia Foschia 4 4 100 1019 3 N 3.7
Ieri h: 23:00 foschia Foschia 4 3 93 1020 3 N 5.5
Ieri h: 22:30 foschia Foschia 4 4 100 1020 3 N 5.5
Ieri h: 22:00 foschia Foschia 5 5 100 1020 3 N 0
Ieri h: 21:30 foschia Foschia 6 5 93 1020 3 N 1.8
Ieri h: 21:00 foschia Foschia 7 6 93 1020 3 N 9.3
Ieri h: 20:30 foschia Foschia 7 6 93 1020 3 N 9.3
Ieri h: 20:00 foschia Foschia 7 6 93 1020 3 N 0
Ieri h: 19:30 foschia Foschia 7 6 93 1021 3 O 7.4
Ieri h: 19:00 foschia Foschia 7 6 93 1021 3 O 9.3
Ieri h: 18:30 foschia Foschia 7 6 93 1021 3 NO 7.4
Ieri h: 18:00 foschia Foschia 8 6 87 1022 3 O/NO 9.3
Ieri h: 17:30 foschia Foschia Nebbia a Strati 7 5 87 1021 5 O 7.4
Ieri h: 17:00 sereno Sereno 10 7 81 1022 10 N 5.5
Ieri h: 16:30 poco_nuvoloso Poco Nuvoloso 11 7 76 1022 10 S/SO 7.4
Ieri h: 16:00 poco_nuvoloso Poco Nuvoloso 12 7 71 1022 10 S 11.1
Ieri h: 15:30 nuvoloso Nuvoloso 12 7 71 1023 10 S 11.1
Ieri h: 15:00 nuvoloso Nuvoloso 12 7 71 1023 10 S 13
Ieri h: 14:30 nuvoloso Nuvoloso 12 7 71 1023 10 S 11.1
Ieri h: 14:00 nuvoloso Nuvoloso 12 7 71 1024 10 S 11.1
Ieri h: 13:30 nuvoloso Nuvoloso 12 7 71 1024 10 N 7.4
Ieri h: 13:00 nuvoloso Nuvoloso 11 6 71 1025 10 E/SE 11.1
Ieri h: 12:30 nuvoloso Nuvoloso 12 6 66 1026 10 N 5.5
Ieri h: 12:00 nuvoloso Nuvoloso 11 5 66 1026 10 SE 7.4
Ieri h: 11:30 poco_nuvoloso Poco Nuvoloso 11 5 66 1026 10 E/SE 11.1
Ieri h: 11:00 poco_nuvoloso Poco Nuvoloso 11 4 61 1026 10 E/SE 9.3
Ieri h: 10:30 sereno Sereno 11 4 61 1026 10 N 9.3
Ieri h: 10:00 sereno Sereno 11 4 61 1026 10 E/SE 7.4
Ieri h: 09:30 sereno Sereno 10 4 66 1027 10 E 9.3
Ieri h: 09:00 sereno Sereno 8 4 75 1026 10 E/NE 7.4
Ieri h: 08:30 sereno Sereno 3 1 86 1026 10 E 7.4
Ieri h: 08:00 sereno Sereno 1 -0 93 1026 10 E 9.3
Ieri h: 07:30 sereno Sereno -0 -2 86 1026 10 N 5.5
Ieri h: 07:00 sereno Sereno 1 -1 86 1026 10 E 9.3
Ieri h: 06:30 sereno Sereno 1 -0 93 1025 10 E 9.3
Ieri h: 06:00 sereno Sereno 0 -2 86 1026 10 N 5.5
Ieri h: 05:30 sereno Sereno 1 -1 86 1025 10 N 5.5
Ieri h: 05:00 sereno Sereno 2 -1 80 1025 10 N 5.5
Ieri h: 04:30 sereno Sereno 2 -0 86 1025 10 N 3.7
Ieri h: 04:00 sereno Sereno 5 2 80 1025 10 NE 9.3
Ieri h: 03:30 sereno Sereno 5 2 80 1025 10 E/NE 18.5
Ieri h: 03:00 sereno Sereno 5 2 80 1025 10 E/NE 14.8
Ieri h: 02:30 sereno Sereno 5 3 86 1025 10 E 22.2
Ieri h: 02:00 foschia Foschia 4 2 86 1025 5 E/NE 14.8
Ieri h: 01:30 foschia Foschia 1 0 93 1025 5 NE 11.1
Ieri h: 01:00 foschia Foschia 4 3 93 1024 5 N 1.8